NCAR-RAP Real-Time Weather Data

Output produced by METARs form (17 December 2018  08:06 UTC)
found at http://weather.rap.ucar.edu/surface/
 
RJOT 170700Z 23008KT 9999 VCSH FEW008 SCT030 BKN050 07/06 Q1012
RJOT 170600Z 27014KT 9999 -SHRA FEW008 SCT020 BKN030 07/05 Q1012
RJOT 170500Z 29011KT 9999 -SHRA FEW002 SCT015 BKN025 08/06 Q1011
RJOT 170400Z 28016KT 9999 VCSH FEW002 SCT015 BKN025 10/06 Q1011
RJOT 170349Z 28014KT 9999 VCSH FEW002 SCT010 BKN025 10/05 Q1011 RMK 1ST002 3CU010 5CU025 A2985
RJOT 170337Z 22009KT 180V260 9999 VCSH FEW002 SCT010 BKN025 09/07 Q1011 RMK 1ST002 3CU010 5CU025 A2986
RJOT 170300Z 28010KT 9999 VCSH FEW008 SCT030 BKN070 10/07 Q1011
RJOT 170200Z 27012KT 9999 FEW020 BKN070 11/05 Q1012
RJOT 170100Z 26011KT 9999 FEW015 SCT060 11/08 Q1013
RJOT 170000Z 24007KT 9999 FEW005 SCT050 09/07 Q1013
RJOT 162300Z 24008KT 9999 FEW005 BKN050 08/07 Q1012
RJOT 162200Z 24005KT 8000 FEW003 SCT010 BKN045 07/07 Q1012
RJOT 162120Z 25006KT 9999 FEW005 SCT010 BKN045 07/07 Q1012 RMK 1ST005 3ST010 5SC045 A2990
RJOT 161200Z 25001KT 8000 -RA FEW008 SCT050 BKN070 07/07 Q1015
RJOT 161100Z 11002KT 9999 -RA FEW010 SCT050 BKN070 07/07 Q1015
RJOT 161000Z 12005KT 9999 -RA FEW010 SCT050 BKN070 07/07 Q1016
RJOT 160900Z 10004KT 9999 -RA FEW010 SCT050 BKN070 07/06 Q1017
RJOT 160800Z VRB02KT 9999 -RA FEW015 SCT050 BKN070 07/06 Q1018
RJOT 160700Z VRB02KT 9999 -RA FEW015 SCT045 BKN070 09/04 Q1018
RJOT 160600Z VRB02KT 9999 -RA FEW020 SCT050 BKN070 10/03 Q1018
RJOT 160500Z 05004KT 320V110 9999 FEW020 SCT060 BKN080 10/03 Q1019
RJOT 160400Z 06005KT 330V090 9999 FEW020 SCT080 BKN120 10/02 Q1020
RJOT 160300Z 05006KT 9999 FEW020 SCT110 BKN130 09/01 Q1021
RJOT 160200Z 03004KT 350V070 9999 FEW025 SCT120 BKN/// 08/01 Q1023
RJOT 160100Z 11003KT 9999 FEW025 SCT120 BKN140 06/02 Q1023
RJOT 160000Z 12005KT 9999 FEW025 05/00 Q1023
RJOT 151200Z 15006KT 9999 FEW030 SCT/// 01/M01 Q1028
RJOT 151100Z 15007KT 9999 FEW030 03/M00 Q1028
RJOT 151000Z 14006KT 9999 FEW030 SCT/// 04/M00 Q1028
RJOT 150900Z 14006KT 9999 FEW030 BKN050 04/00 Q1028
RJOT 150800Z 14005KT 9999 FEW030 05/00 Q1028
RJOT 150700Z 06003KT 030V090 9999 FEW030 SCT050 07/M01 Q1028
RJOT 150600Z 35004KT 300V030 9999 FEW030 SCT050 08/M01 Q1028
RJOT 150500Z 36004KT 290V030 9999 FEW025 SCT040 08/M02 Q1028
RJOT 150400Z 36005KT 320V040 9999 FEW025 SCT040 08/M00 Q1028
RJOT 150300Z VRB03KT 9999 FEW025 BKN035 07/M00 Q1029
RJOT 150200Z VRB03KT 9999 FEW020 SCT025 07/01 Q1030
RJOT 150100Z VRB02KT 9999 FEW020 SCT030 07/01 Q1031
RJOT 150000Z VRB02KT 9999 FEW020 05/02 Q1030
RJOT 142300Z 15005KT 9999 FEW020 SCT050 03/01 Q1030
RJOT 142200Z VRB02KT 9999 FEW020 SCT040 BKN050 02/01 Q1029
RJOT 142120Z 21006KT 9999 FEW020 BKN040 02/00 Q1029 RMK 1CU020 5CU040 A3040